sensor_id;sensor_type;location;lat;lon;timestamp;P1;durP1;ratioP1;P2;durP2;ratioP2
5650;SDS011;40241;52.684;9.758;2023-03-04T00:01:13;9.30;;;3.00;;
5650;SDS011;40241;52.684;9.758;2023-03-04T00:03:38;12.67;;;2.23;;
5650;SDS011;40241;52.684;9.758;2023-03-04T00:06:03;5.37;;;1.80;;
5650;SDS011;40241;52.684;9.758;2023-03-04T00:08:29;8.90;;;2.23;;
5650;SDS011;40241;52.684;9.758;2023-03-04T00:10:55;6.90;;;1.80;;
5650;SDS011;40241;52.684;9.758;2023-03-04T00:13:20;9.00;;;1.60;;
5650;SDS011;40241;52.684;9.758;2023-03-04T00:15:46;6.17;;;1.67;;
5650;SDS011;40241;52.684;9.758;2023-03-04T00:18:12;9.13;;;1.70;;
5650;SDS011;40241;52.684;9.758;2023-03-04T00:20:38;7.37;;;2.00;;
5650;SDS011;40241;52.684;9.758;2023-03-04T00:23:03;5.77;;;1.60;;
5650;SDS011;40241;52.684;9.758;2023-03-04T00:25:28;6.60;;;1.30;;
5650;SDS011;40241;52.684;9.758;2023-03-04T00:27:53;11.63;;;1.40;;
5650;SDS011;40241;52.684;9.758;2023-03-04T00:30:19;6.73;;;2.07;;
5650;SDS011;40241;52.684;9.758;2023-03-04T00:32:44;5.67;;;1.67;;
5650;SDS011;40241;52.684;9.758;2023-03-04T00:35:09;6.50;;;1.17;;
5650;SDS011;40241;52.684;9.758;2023-03-04T00:37:35;7.97;;;1.67;;
5650;SDS011;40241;52.684;9.758;2023-03-04T00:40:00;9.17;;;3.00;;
5650;SDS011;40241;52.684;9.758;2023-03-04T00:42:25;15.43;;;1.13;;
5650;SDS011;40241;52.684;9.758;2023-03-04T00:44:51;9.80;;;1.90;;
5650;SDS011;40241;52.684;9.758;2023-03-04T00:47:16;4.63;;;1.20;;
5650;SDS011;40241;52.684;9.758;2023-03-04T00:49:41;6.03;;;1.40;;
5650;SDS011;40241;52.684;9.758;2023-03-04T00:52:07;3.07;;;1.20;;
5650;SDS011;40241;52.684;9.758;2023-03-04T00:54:32;11.30;;;1.70;;
5650;SDS011;40241;52.684;9.758;2023-03-04T00:56:57;3.90;;;1.27;;
5650;SDS011;40241;52.684;9.758;2023-03-04T00:59:23;6.27;;;1.40;;
5650;SDS011;40241;52.684;9.758;2023-03-04T01:01:48;3.00;;;1.30;;
5650;SDS011;40241;52.684;9.758;2023-03-04T01:04:13;11.30;;;1.43;;
5650;SDS011;40241;52.684;9.758;2023-03-04T01:06:38;9.60;;;1.20;;
5650;SDS011;40241;52.684;9.758;2023-03-04T01:09:04;9.03;;;1.07;;
5650;SDS011;40241;52.684;9.758;2023-03-04T01:11:29;3.83;;;1.23;;
5650;SDS011;40241;52.684;9.758;2023-03-04T01:13:55;5.00;;;1.50;;
5650;SDS011;40241;52.684;9.758;2023-03-04T01:16:20;8.57;;;1.33;;
5650;SDS011;40241;52.684;9.758;2023-03-04T01:18:46;9.13;;;1.77;;
5650;SDS011;40241;52.684;9.758;2023-03-04T01:21:11;7.47;;;1.83;;
5650;SDS011;40241;52.684;9.758;2023-03-04T01:23:37;6.60;;;1.50;;
5650;SDS011;40241;52.684;9.758;2023-03-04T01:26:02;9.00;;;1.40;;
5650;SDS011;40241;52.684;9.758;2023-03-04T01:28:28;3.30;;;1.27;;
5650;SDS011;40241;52.684;9.758;2023-03-04T01:30:53;9.07;;;1.33;;
5650;SDS011;40241;52.684;9.758;2023-03-04T01:33:18;6.20;;;1.30;;
5650;SDS011;40241;52.684;9.758;2023-03-04T01:35:44;9.17;;;3.07;;
5650;SDS011;40241;52.684;9.758;2023-03-04T01:38:09;6.93;;;1.80;;
5650;SDS011;40241;52.684;9.758;2023-03-04T01:40:35;6.97;;;1.40;;
5650;SDS011;40241;52.684;9.758;2023-03-04T01:43:01;3.60;;;1.10;;
5650;SDS011;40241;52.684;9.758;2023-03-04T01:45:27;7.23;;;1.27;;
5650;SDS011;40241;52.684;9.758;2023-03-04T01:47:53;5.33;;;1.73;;
5650;SDS011;40241;52.684;9.758;2023-03-04T01:52:44;6.60;;;1.53;;
5650;SDS011;40241;52.684;9.758;2023-03-04T01:55:19;4.90;;;1.50;;
5650;SDS011;40241;52.684;9.758;2023-03-04T01:57:46;14.73;;;2.93;;
5650;SDS011;40241;52.684;9.758;2023-03-04T02:02:43;5.57;;;1.93;;
5650;SDS011;40241;52.684;9.758;2023-03-04T02:05:09;10.80;;;2.60;;
5650;SDS011;40241;52.684;9.758;2023-03-04T02:07:34;4.50;;;1.53;;
5650;SDS011;40241;52.684;9.758;2023-03-04T02:10:00;7.50;;;1.83;;
5650;SDS011;40241;52.684;9.758;2023-03-04T02:12:25;9.47;;;2.10;;
5650;SDS011;40241;52.684;9.758;2023-03-04T02:14:51;7.30;;;2.03;;
5650;SDS011;40241;52.684;9.758;2023-03-04T02:17:16;9.07;;;1.40;;
5650;SDS011;40241;52.684;9.758;2023-03-04T02:22:37;8.10;;;1.77;;
5650;SDS011;40241;52.684;9.758;2023-03-04T02:25:08;5.23;;;1.67;;
5650;SDS011;40241;52.684;9.758;2023-03-04T02:27:37;3.53;;;1.23;;
5650;SDS011;40241;52.684;9.758;2023-03-04T02:30:02;1.50;;;0.70;;
5650;SDS011;40241;52.684;9.758;2023-03-04T02:32:28;8.13;;;1.70;;
5650;SDS011;40241;52.684;9.758;2023-03-04T02:34:53;6.63;;;1.70;;
5650;SDS011;40241;52.684;9.758;2023-03-04T02:37:20;7.67;;;1.50;;
5650;SDS011;40241;52.684;9.758;2023-03-04T02:39:46;6.77;;;1.20;;
5650;SDS011;40241;52.684;9.758;2023-03-04T02:42:13;4.20;;;1.10;;
5650;SDS011;40241;52.684;9.758;2023-03-04T02:44:40;4.93;;;1.10;;
5650;SDS011;40241;52.684;9.758;2023-03-04T02:47:10;5.03;;;1.67;;
5650;SDS011;40241;52.684;9.758;2023-03-04T02:49:38;4.50;;;1.17;;
5650;SDS011;40241;52.684;9.758;2023-03-04T02:52:06;8.97;;;1.40;;
5650;SDS011;40241;52.684;9.758;2023-03-04T02:54:38;3.93;;;1.40;;
5650;SDS011;40241;52.684;9.758;2023-03-04T02:57:05;5.07;;;1.00;;
5650;SDS011;40241;52.684;9.758;2023-03-04T02:59:32;3.70;;;1.57;;
5650;SDS011;40241;52.684;9.758;2023-03-04T03:01:57;6.20;;;1.50;;
5650;SDS011;40241;52.684;9.758;2023-03-04T03:04:23;4.87;;;0.80;;
5650;SDS011;40241;52.684;9.758;2023-03-04T03:06:49;7.77;;;1.70;;
5650;SDS011;40241;52.684;9.758;2023-03-04T03:09:15;3.93;;;1.00;;
5650;SDS011;40241;52.684;9.758;2023-03-04T03:11:41;5.40;;;1.30;;
5650;SDS011;40241;52.684;9.758;2023-03-04T03:14:06;1.90;;;1.07;;
5650;SDS011;40241;52.684;9.758;2023-03-04T03:16:32;2.93;;;0.90;;
5650;SDS011;40241;52.684;9.758;2023-03-04T03:18:58;4.90;;;1.20;;
5650;SDS011;40241;52.684;9.758;2023-03-04T03:21:23;9.40;;;1.37;;
5650;SDS011;40241;52.684;9.758;2023-03-04T03:23:48;7.57;;;1.20;;
5650;SDS011;40241;52.684;9.758;2023-03-04T03:26:14;1.50;;;0.90;;
5650;SDS011;40241;52.684;9.758;2023-03-04T03:28:40;4.47;;;1.33;;
5650;SDS011;40241;52.684;9.758;2023-03-04T03:31:05;4.30;;;0.97;;
5650;SDS011;40241;52.684;9.758;2023-03-04T03:33:30;8.90;;;2.23;;
5650;SDS011;40241;52.684;9.758;2023-03-04T03:35:56;1.20;;;0.80;;
5650;SDS011;40241;52.684;9.758;2023-03-04T03:38:21;7.00;;;1.33;;
5650;SDS011;40241;52.684;9.758;2023-03-04T03:40:47;6.47;;;1.07;;
5650;SDS011;40241;52.684;9.758;2023-03-04T03:43:12;3.17;;;0.80;;
5650;SDS011;40241;52.684;9.758;2023-03-04T03:45:37;4.60;;;1.20;;
5650;SDS011;40241;52.684;9.758;2023-03-04T03:48:03;3.47;;;0.60;;
5650;SDS011;40241;52.684;9.758;2023-03-04T03:50:29;2.83;;;0.90;;
5650;SDS011;40241;52.684;9.758;2023-03-04T03:52:54;3.07;;;0.70;;
5650;SDS011;40241;52.684;9.758;2023-03-04T03:55:20;3.63;;;1.03;;
5650;SDS011;40241;52.684;9.758;2023-03-04T03:57:45;4.93;;;1.27;;
5650;SDS011;40241;52.684;9.758;2023-03-04T04:00:11;2.77;;;0.97;;
5650;SDS011;40241;52.684;9.758;2023-03-04T04:02:37;8.40;;;1.23;;
5650;SDS011;40241;52.684;9.758;2023-03-04T04:05:03;2.70;;;0.90;;
5650;SDS011;40241;52.684;9.758;2023-03-04T04:07:29;3.77;;;0.90;;
5650;SDS011;40241;52.684;9.758;2023-03-04T04:09:54;2.67;;;0.80;;
5650;SDS011;40241;52.684;9.758;2023-03-04T04:12:19;2.97;;;1.07;;
5650;SDS011;40241;52.684;9.758;2023-03-04T04:14:45;3.27;;;1.10;;
5650;SDS011;40241;52.684;9.758;2023-03-04T04:17:10;4.10;;;1.23;;
5650;SDS011;40241;52.684;9.758;2023-03-04T04:19:37;1.30;;;0.80;;
5650;SDS011;40241;52.684;9.758;2023-03-04T04:22:04;8.43;;;1.10;;
5650;SDS011;40241;52.684;9.758;2023-03-04T04:24:31;4.73;;;1.17;;
5650;SDS011;40241;52.684;9.758;2023-03-04T04:26:56;5.80;;;1.60;;
5650;SDS011;40241;52.684;9.758;2023-03-04T04:29:22;1.93;;;0.90;;
5650;SDS011;40241;52.684;9.758;2023-03-04T04:31:48;2.83;;;1.00;;
5650;SDS011;40241;52.684;9.758;2023-03-04T04:34:13;6.10;;;1.37;;
5650;SDS011;40241;52.684;9.758;2023-03-04T04:36:38;4.37;;;1.10;;
5650;SDS011;40241;52.684;9.758;2023-03-04T04:39:04;6.07;;;1.70;;
5650;SDS011;40241;52.684;9.758;2023-03-04T04:41:37;2.13;;;1.10;;
5650;SDS011;40241;52.684;9.758;2023-03-04T04:44:04;8.80;;;1.30;;
5650;SDS011;40241;52.684;9.758;2023-03-04T04:46:29;1.77;;;1.00;;
5650;SDS011;40241;52.684;9.758;2023-03-04T04:48:55;3.70;;;1.23;;
5650;SDS011;40241;52.684;9.758;2023-03-04T04:51:20;3.73;;;1.20;;
5650;SDS011;40241;52.684;9.758;2023-03-04T04:53:46;3.77;;;1.40;;
5650;SDS011;40241;52.684;9.758;2023-03-04T04:56:17;3.23;;;1.20;;
5650;SDS011;40241;52.684;9.758;2023-03-04T04:58:45;3.70;;;0.90;;
5650;SDS011;40241;52.684;9.758;2023-03-04T05:01:11;3.70;;;1.10;;
5650;SDS011;40241;52.684;9.758;2023-03-04T05:03:38;8.93;;;1.20;;
5650;SDS011;40241;52.684;9.758;2023-03-04T05:06:04;7.40;;;1.30;;
5650;SDS011;40241;52.684;9.758;2023-03-04T05:08:31;1.17;;;0.60;;
5650;SDS011;40241;52.684;9.758;2023-03-04T05:10:56;3.33;;;0.90;;
5650;SDS011;40241;52.684;9.758;2023-03-04T05:13:22;4.53;;;1.10;;
5650;SDS011;40241;52.684;9.758;2023-03-04T05:15:49;2.83;;;0.67;;
5650;SDS011;40241;52.684;9.758;2023-03-04T05:18:15;8.43;;;1.20;;
5650;SDS011;40241;52.684;9.758;2023-03-04T05:20:41;4.97;;;0.80;;
5650;SDS011;40241;52.684;9.758;2023-03-04T05:23:06;3.10;;;0.83;;
5650;SDS011;40241;52.684;9.758;2023-03-04T05:25:31;2.13;;;0.70;;
5650;SDS011;40241;52.684;9.758;2023-03-04T05:27:57;8.30;;;1.10;;
5650;SDS011;40241;52.684;9.758;2023-03-04T05:30:22;1.73;;;0.93;;
5650;SDS011;40241;52.684;9.758;2023-03-04T05:32:47;2.20;;;0.80;;
5650;SDS011;40241;52.684;9.758;2023-03-04T05:35:13;9.03;;;1.20;;
5650;SDS011;40241;52.684;9.758;2023-03-04T05:37:38;2.90;;;0.40;;
5650;SDS011;40241;52.684;9.758;2023-03-04T05:40:03;6.80;;;1.00;;
5650;SDS011;40241;52.684;9.758;2023-03-04T05:42:29;4.70;;;0.63;;
5650;SDS011;40241;52.684;9.758;2023-03-04T05:44:55;3.40;;;0.67;;
5650;SDS011;40241;52.684;9.758;2023-03-04T05:47:20;3.03;;;0.90;;
5650;SDS011;40241;52.684;9.758;2023-03-04T05:49:46;3.17;;;0.60;;
5650;SDS011;40241;52.684;9.758;2023-03-04T05:52:11;3.97;;;0.70;;
5650;SDS011;40241;52.684;9.758;2023-03-04T05:54:36;2.93;;;1.07;;
5650;SDS011;40241;52.684;9.758;2023-03-04T05:57:02;3.60;;;0.63;;
5650;SDS011;40241;52.684;9.758;2023-03-04T05:59:27;3.03;;;1.03;;
5650;SDS011;40241;52.684;9.758;2023-03-04T06:01:53;3.73;;;1.10;;
5650;SDS011;40241;52.684;9.758;2023-03-04T06:04:18;3.30;;;0.80;;
5650;SDS011;40241;52.684;9.758;2023-03-04T06:06:43;5.30;;;0.90;;
5650;SDS011;40241;52.684;9.758;2023-03-04T06:09:11;7.23;;;0.90;;
5650;SDS011;40241;52.684;9.758;2023-03-04T06:11:37;4.67;;;0.90;;
5650;SDS011;40241;52.684;9.758;2023-03-04T06:14:03;1.33;;;0.80;;
5650;SDS011;40241;52.684;9.758;2023-03-04T06:16:28;4.17;;;1.10;;
5650;SDS011;40241;52.684;9.758;2023-03-04T06:18:54;2.30;;;0.70;;
5650;SDS011;40241;52.684;9.758;2023-03-04T06:21:19;1.53;;;0.70;;
5650;SDS011;40241;52.684;9.758;2023-03-04T06:23:44;1.90;;;0.53;;
5650;SDS011;40241;52.684;9.758;2023-03-04T06:26:11;4.63;;;0.80;;
5650;SDS011;40241;52.684;9.758;2023-03-04T06:28:39;7.30;;;0.80;;
5650;SDS011;40241;52.684;9.758;2023-03-04T06:31:06;3.20;;;0.90;;
5650;SDS011;40241;52.684;9.758;2023-03-04T06:33:31;3.33;;;0.80;;
5650;SDS011;40241;52.684;9.758;2023-03-04T06:35:56;2.80;;;0.87;;
5650;SDS011;40241;52.684;9.758;2023-03-04T06:38:22;1.43;;;0.70;;
5650;SDS011;40241;52.684;9.758;2023-03-04T06:40:49;5.53;;;1.30;;
5650;SDS011;40241;52.684;9.758;2023-03-04T06:43:14;3.63;;;0.93;;
5650;SDS011;40241;52.684;9.758;2023-03-04T06:45:39;1.20;;;0.97;;
5650;SDS011;40241;52.684;9.758;2023-03-04T06:48:05;2.97;;;1.13;;
5650;SDS011;40241;52.684;9.758;2023-03-04T06:50:30;2.43;;;0.83;;
5650;SDS011;40241;52.684;9.758;2023-03-04T06:52:56;6.67;;;1.07;;
5650;SDS011;40241;52.684;9.758;2023-03-04T06:55:21;2.97;;;0.90;;
5650;SDS011;40241;52.684;9.758;2023-03-04T06:57:47;3.17;;;1.20;;
5650;SDS011;40241;52.684;9.758;2023-03-04T07:00:12;2.80;;;0.80;;
5650;SDS011;40241;52.684;9.758;2023-03-04T07:02:38;3.80;;;1.03;;
5650;SDS011;40241;52.684;9.758;2023-03-04T07:05:03;6.97;;;1.33;;
5650;SDS011;40241;52.684;9.758;2023-03-04T07:07:29;2.83;;;1.00;;
5650;SDS011;40241;52.684;9.758;2023-03-04T07:09:55;2.10;;;0.97;;
5650;SDS011;40241;52.684;9.758;2023-03-04T07:12:20;1.80;;;0.90;;
5650;SDS011;40241;52.684;9.758;2023-03-04T07:14:45;1.73;;;0.90;;
5650;SDS011;40241;52.684;9.758;2023-03-04T07:17:10;6.70;;;1.23;;
5650;SDS011;40241;52.684;9.758;2023-03-04T07:19:36;2.60;;;1.13;;
5650;SDS011;40241;52.684;9.758;2023-03-04T07:22:02;2.13;;;0.90;;
5650;SDS011;40241;52.684;9.758;2023-03-04T07:24:27;2.90;;;1.00;;
5650;SDS011;40241;52.684;9.758;2023-03-04T07:26:53;6.33;;;1.43;;
5650;SDS011;40241;52.684;9.758;2023-03-04T07:29:18;0.80;;;0.80;;
5650;SDS011;40241;52.684;9.758;2023-03-04T07:31:43;2.07;;;1.20;;
5650;SDS011;40241;52.684;9.758;2023-03-04T07:34:09;1.30;;;0.80;;
5650;SDS011;40241;52.684;9.758;2023-03-04T07:36:36;1.73;;;1.10;;
5650;SDS011;40241;52.684;9.758;2023-03-04T07:39:02;1.57;;;0.97;;
5650;SDS011;40241;52.684;9.758;2023-03-04T07:41:28;1.23;;;1.00;;
5650;SDS011;40241;52.684;9.758;2023-03-04T07:43:55;2.13;;;0.90;;
5650;SDS011;40241;52.684;9.758;2023-03-04T07:46:22;5.80;;;1.20;;
5650;SDS011;40241;52.684;9.758;2023-03-04T07:48:48;2.20;;;1.20;;
5650;SDS011;40241;52.684;9.758;2023-03-04T07:51:14;3.67;;;1.40;;
5650;SDS011;40241;52.684;9.758;2023-03-04T07:53:42;4.13;;;1.00;;
5650;SDS011;40241;52.684;9.758;2023-03-04T07:56:20;2.33;;;1.03;;
5650;SDS011;40241;52.684;9.758;2023-03-04T07:58:47;4.40;;;1.10;;
5650;SDS011;40241;52.684;9.758;2023-03-04T08:01:15;4.97;;;1.70;;
5650;SDS011;40241;52.684;9.758;2023-03-04T08:04:02;6.13;;;1.20;;
5650;SDS011;40241;52.684;9.758;2023-03-04T08:06:29;2.97;;;1.70;;
5650;SDS011;40241;52.684;9.758;2023-03-04T08:08:56;6.77;;;1.40;;
5650;SDS011;40241;52.684;9.758;2023-03-04T08:11:24;6.33;;;2.10;;
5650;SDS011;40241;52.684;9.758;2023-03-04T08:13:51;3.97;;;1.50;;
5650;SDS011;40241;52.684;9.758;2023-03-04T08:16:18;4.63;;;1.53;;
5650;SDS011;40241;52.684;9.758;2023-03-04T08:18:47;4.50;;;1.30;;
5650;SDS011;40241;52.684;9.758;2023-03-04T08:21:16;5.90;;;1.57;;
5650;SDS011;40241;52.684;9.758;2023-03-04T08:23:44;5.97;;;1.87;;
5650;SDS011;40241;52.684;9.758;2023-03-04T08:26:11;9.50;;;1.97;;
5650;SDS011;40241;52.684;9.758;2023-03-04T08:28:42;6.80;;;1.83;;
5650;SDS011;40241;52.684;9.758;2023-03-04T08:31:10;6.27;;;1.10;;
5650;SDS011;40241;52.684;9.758;2023-03-04T08:33:37;3.10;;;1.30;;
5650;SDS011;40241;52.684;9.758;2023-03-04T08:36:02;3.17;;;1.93;;
5650;SDS011;40241;52.684;9.758;2023-03-04T08:38:29;6.53;;;2.30;;
5650;SDS011;40241;52.684;9.758;2023-03-04T08:40:55;4.67;;;3.00;;
5650;SDS011;40241;52.684;9.758;2023-03-04T08:43:23;4.67;;;2.50;;
5650;SDS011;40241;52.684;9.758;2023-03-04T08:45:50;7.20;;;2.80;;
5650;SDS011;40241;52.684;9.758;2023-03-04T08:48:17;5.80;;;2.40;;
5650;SDS011;40241;52.684;9.758;2023-03-04T08:50:43;4.97;;;1.93;;
5650;SDS011;40241;52.684;9.758;2023-03-04T08:53:09;6.30;;;1.93;;
5650;SDS011;40241;52.684;9.758;2023-03-04T08:55:36;5.83;;;1.97;;
5650;SDS011;40241;52.684;9.758;2023-03-04T08:58:03;3.43;;;1.57;;
5650;SDS011;40241;52.684;9.758;2023-03-04T09:00:28;10.03;;;1.80;;
5650;SDS011;40241;52.684;9.758;2023-03-04T09:02:54;6.37;;;1.57;;
5650;SDS011;40241;52.684;9.758;2023-03-04T09:05:20;9.67;;;1.47;;
5650;SDS011;40241;52.684;9.758;2023-03-04T09:07:45;3.67;;;1.40;;
5650;SDS011;40241;52.684;9.758;2023-03-04T09:10:11;7.73;;;1.80;;
5650;SDS011;40241;52.684;9.758;2023-03-04T09:12:37;4.53;;;1.60;;
5650;SDS011;40241;52.684;9.758;2023-03-04T09:15:02;3.47;;;1.20;;
5650;SDS011;40241;52.684;9.758;2023-03-04T09:17:29;9.13;;;1.70;;
5650;SDS011;40241;52.684;9.758;2023-03-04T09:19:55;9.37;;;2.40;;
5650;SDS011;40241;52.684;9.758;2023-03-04T09:22:21;5.60;;;1.70;;
5650;SDS011;40241;52.684;9.758;2023-03-04T09:24:46;5.03;;;1.83;;
5650;SDS011;40241;52.684;9.758;2023-03-04T09:27:11;5.13;;;1.60;;
5650;SDS011;40241;52.684;9.758;2023-03-04T09:29:37;2.77;;;1.40;;
5650;SDS011;40241;52.684;9.758;2023-03-04T09:32:02;9.97;;;1.43;;
5650;SDS011;40241;52.684;9.758;2023-03-04T09:34:27;4.77;;;1.83;;
5650;SDS011;40241;52.684;9.758;2023-03-04T09:36:53;4.27;;;1.23;;
5650;SDS011;40241;52.684;9.758;2023-03-04T09:39:18;6.60;;;1.10;;
5650;SDS011;40241;52.684;9.758;2023-03-04T09:44:22;4.63;;;1.10;;
5650;SDS011;40241;52.684;9.758;2023-03-04T09:46:52;10.13;;;1.50;;
5650;SDS011;40241;52.684;9.758;2023-03-04T09:49:22;4.10;;;1.53;;
5650;SDS011;40241;52.684;9.758;2023-03-04T09:57:29;4.70;;;0.80;;
5650;SDS011;40241;52.684;9.758;2023-03-04T10:05:09;5.43;;;0.80;;
5650;SDS011;40241;52.684;9.758;2023-03-04T10:07:39;3.73;;;0.80;;
5650;SDS011;40241;52.684;9.758;2023-03-04T10:12:57;5.20;;;0.77;;
5650;SDS011;40241;52.684;9.758;2023-03-04T10:15:58;3.40;;;1.17;;
5650;SDS011;40241;52.684;9.758;2023-03-04T10:18:19;6.40;;;1.30;;
5650;SDS011;40241;52.684;9.758;2023-03-04T10:20:53;4.33;;;0.80;;
5650;SDS011;40241;52.684;9.758;2023-03-04T10:23:23;2.87;;;1.00;;
5650;SDS011;40241;52.684;9.758;2023-03-04T10:25:50;1.50;;;0.90;;
5650;SDS011;40241;52.684;9.758;2023-03-04T10:28:24;3.50;;;1.00;;
5650;SDS011;40241;52.684;9.758;2023-03-04T10:33:19;6.30;;;1.30;;
5650;SDS011;40241;52.684;9.758;2023-03-04T10:35:59;3.47;;;1.00;;
5650;SDS011;40241;52.684;9.758;2023-03-04T10:38:55;7.47;;;1.63;;
5650;SDS011;40241;52.684;9.758;2023-03-04T10:41:24;7.53;;;1.60;;
5650;SDS011;40241;52.684;9.758;2023-03-04T10:46:48;5.23;;;1.30;;
5650;SDS011;40241;52.684;9.758;2023-03-04T10:49:17;5.60;;;1.23;;
5650;SDS011;40241;52.684;9.758;2023-03-04T10:56:51;7.10;;;1.40;;
5650;SDS011;40241;52.684;9.758;2023-03-04T11:02:49;3.60;;;1.50;;
5650;SDS011;40241;52.684;9.758;2023-03-04T11:07:27;3.27;;;1.90;;
5650;SDS011;40241;52.684;9.758;2023-03-04T11:09:52;4.20;;;1.10;;
5650;SDS011;40241;52.684;9.758;2023-03-04T11:12:19;3.70;;;1.10;;
5650;SDS011;40241;52.684;9.758;2023-03-04T11:14:47;8.13;;;1.33;;
5650;SDS011;40241;52.684;9.758;2023-03-04T11:17:28;4.00;;;1.10;;
5650;SDS011;40241;52.684;9.758;2023-03-04T11:22:49;7.50;;;1.20;;
5650;SDS011;40241;52.684;9.758;2023-03-04T11:27:57;4.93;;;1.50;;
5650;SDS011;40241;52.684;9.758;2023-03-04T11:30:42;2.40;;;1.37;;
5650;SDS011;40241;52.684;9.758;2023-03-04T11:33:15;5.67;;;1.10;;
5650;SDS011;40241;52.684;9.758;2023-03-04T11:40:48;4.67;;;0.93;;
5650;SDS011;40241;52.684;9.758;2023-03-04T11:43:21;2.70;;;0.80;;
5650;SDS011;40241;52.684;9.758;2023-03-04T11:48:48;4.00;;;1.30;;
5650;SDS011;40241;52.684;9.758;2023-03-04T11:56:59;5.90;;;1.13;;
5650;SDS011;40241;52.684;9.758;2023-03-04T12:04:56;4.90;;;1.00;;
5650;SDS011;40241;52.684;9.758;2023-03-04T12:07:41;2.60;;;0.90;;
5650;SDS011;40241;52.684;9.758;2023-03-04T12:32:55;6.73;;;1.03;;
5650;SDS011;40241;52.684;9.758;2023-03-04T12:37:48;8.20;;;1.37;;
5650;SDS011;40241;52.684;9.758;2023-03-04T12:42:57;5.73;;;1.20;;
5650;SDS011;40241;52.684;9.758;2023-03-04T12:51:02;5.60;;;1.40;;
5650;SDS011;40241;52.684;9.758;2023-03-04T12:59:05;7.07;;;1.10;;
5650;SDS011;40241;52.684;9.758;2023-03-04T13:01:38;13.50;;;1.77;;
5650;SDS011;40241;52.684;9.758;2023-03-04T13:09:30;3.17;;;1.37;;
5650;SDS011;40241;52.684;9.758;2023-03-04T13:15:13;5.67;;;1.83;;
5650;SDS011;40241;52.684;9.758;2023-03-04T13:17:37;6.07;;;2.07;;
5650;SDS011;40241;52.684;9.758;2023-03-04T13:23:03;4.40;;;1.67;;
5650;SDS011;40241;52.684;9.758;2023-03-04T13:25:41;3.70;;;1.60;;
5650;SDS011;40241;52.684;9.758;2023-03-04T13:28:23;2.90;;;1.00;;
5650;SDS011;40241;52.684;9.758;2023-03-04T13:43:41;5.77;;;1.20;;
5650;SDS011;40241;52.684;9.758;2023-03-04T13:51:14;5.73;;;1.13;;
5650;SDS011;40241;52.684;9.758;2023-03-04T13:53:54;3.23;;;1.10;;
5650;SDS011;40241;52.684;9.758;2023-03-04T13:56:35;8.47;;;1.50;;
5650;SDS011;40241;52.684;9.758;2023-03-04T14:01:33;4.20;;;1.30;;
5650;SDS011;40241;52.684;9.758;2023-03-04T14:06:47;5.70;;;1.27;;
5650;SDS011;40241;52.684;9.758;2023-03-04T14:09:15;3.67;;;1.30;;
5650;SDS011;40241;52.684;9.758;2023-03-04T14:11:45;3.10;;;1.50;;
5650;SDS011;40241;52.684;9.758;2023-03-04T14:14:12;5.10;;;1.20;;
5650;SDS011;40241;52.684;9.758;2023-03-04T14:16:45;5.40;;;1.40;;
5650;SDS011;40241;52.684;9.758;2023-03-04T14:19:16;12.75;;;5.03;;
5650;SDS011;40241;52.684;9.758;2023-03-04T14:21:47;11.57;;;4.50;;
5650;SDS011;40241;52.684;9.758;2023-03-04T14:24:13;13.03;;;5.07;;
5650;SDS011;40241;52.684;9.758;2023-03-04T14:26:41;10.00;;;3.93;;
5650;SDS011;40241;52.684;9.758;2023-03-04T14:29:23;13.50;;;4.30;;
5650;SDS011;40241;52.684;9.758;2023-03-04T14:31:50;6.83;;;2.37;;
5650;SDS011;40241;52.684;9.758;2023-03-04T14:34:22;6.10;;;1.80;;
5650;SDS011;40241;52.684;9.758;2023-03-04T14:36:57;6.80;;;1.93;;
5650;SDS011;40241;52.684;9.758;2023-03-04T14:39:23;4.43;;;1.43;;
5650;SDS011;40241;52.684;9.758;2023-03-04T14:41:52;10.07;;;1.50;;
5650;SDS011;40241;52.684;9.758;2023-03-04T14:46:48;3.97;;;1.83;;
5650;SDS011;40241;52.684;9.758;2023-03-04T14:49:17;7.97;;;1.97;;
5650;SDS011;40241;52.684;9.758;2023-03-04T14:54:29;4.83;;;1.50;;
5650;SDS011;40241;52.684;9.758;2023-03-04T14:56:55;7.30;;;2.70;;
5650;SDS011;40241;52.684;9.758;2023-03-04T14:59:32;9.50;;;1.90;;
5650;SDS011;40241;52.684;9.758;2023-03-04T15:02:15;3.20;;;1.40;;
5650;SDS011;40241;52.684;9.758;2023-03-04T15:04:48;10.37;;;2.23;;
5650;SDS011;40241;52.684;9.758;2023-03-04T15:07:17;6.33;;;1.87;;
5650;SDS011;40241;52.684;9.758;2023-03-04T15:09:49;6.37;;;1.53;;
5650;SDS011;40241;52.684;9.758;2023-03-04T15:12:21;8.50;;;1.20;;
5650;SDS011;40241;52.684;9.758;2023-03-04T15:14:49;6.20;;;1.40;;
5650;SDS011;40241;52.684;9.758;2023-03-04T15:17:27;10.03;;;1.57;;
5650;SDS011;40241;52.684;9.758;2023-03-04T15:22:28;4.63;;;1.43;;
5650;SDS011;40241;52.684;9.758;2023-03-04T15:24:53;3.53;;;1.53;;
5650;SDS011;40241;52.684;9.758;2023-03-04T15:27:19;2.67;;;1.40;;
5650;SDS011;40241;52.684;9.758;2023-03-04T15:29:48;6.10;;;1.60;;
5650;SDS011;40241;52.684;9.758;2023-03-04T15:32:13;5.60;;;1.47;;
5650;SDS011;40241;52.684;9.758;2023-03-04T15:34:39;2.60;;;1.60;;
5650;SDS011;40241;52.684;9.758;2023-03-04T15:37:04;7.80;;;1.40;;
5650;SDS011;40241;52.684;9.758;2023-03-04T15:39:30;3.07;;;1.23;;
5650;SDS011;40241;52.684;9.758;2023-03-04T15:41:56;3.97;;;1.37;;
5650;SDS011;40241;52.684;9.758;2023-03-04T15:44:21;5.80;;;1.17;;
5650;SDS011;40241;52.684;9.758;2023-03-04T15:46:46;5.63;;;1.57;;
5650;SDS011;40241;52.684;9.758;2023-03-04T15:49:12;5.73;;;1.60;;
5650;SDS011;40241;52.684;9.758;2023-03-04T15:51:37;5.13;;;1.47;;
5650;SDS011;40241;52.684;9.758;2023-03-04T15:54:02;5.87;;;1.57;;
5650;SDS011;40241;52.684;9.758;2023-03-04T15:56:29;6.30;;;1.60;;
5650;SDS011;40241;52.684;9.758;2023-03-04T15:59:01;7.43;;;1.40;;
5650;SDS011;40241;52.684;9.758;2023-03-04T16:01:38;6.93;;;1.80;;
5650;SDS011;40241;52.684;9.758;2023-03-04T16:04:04;4.70;;;1.60;;
5650;SDS011;40241;52.684;9.758;2023-03-04T16:06:30;3.63;;;1.37;;
5650;SDS011;40241;52.684;9.758;2023-03-04T16:08:56;8.80;;;1.50;;
5650;SDS011;40241;52.684;9.758;2023-03-04T16:11:26;3.80;;;1.27;;
5650;SDS011;40241;52.684;9.758;2023-03-04T16:13:54;6.93;;;1.07;;
5650;SDS011;40241;52.684;9.758;2023-03-04T16:16:19;4.90;;;1.37;;
5650;SDS011;40241;52.684;9.758;2023-03-04T16:18:45;11.00;;;1.67;;
5650;SDS011;40241;52.684;9.758;2023-03-04T16:21:12;6.50;;;1.50;;
5650;SDS011;40241;52.684;9.758;2023-03-04T16:23:41;4.73;;;1.67;;
5650;SDS011;40241;52.684;9.758;2023-03-04T16:26:13;7.23;;;1.60;;
5650;SDS011;40241;52.684;9.758;2023-03-04T16:28:41;7.87;;;1.70;;
5650;SDS011;40241;52.684;9.758;2023-03-04T16:31:06;8.00;;;1.87;;
5650;SDS011;40241;52.684;9.758;2023-03-04T16:33:34;8.63;;;1.57;;
5650;SDS011;40241;52.684;9.758;2023-03-04T16:36:00;4.83;;;1.20;;
5650;SDS011;40241;52.684;9.758;2023-03-04T16:38:28;8.60;;;1.40;;
5650;SDS011;40241;52.684;9.758;2023-03-04T16:40:55;5.73;;;1.70;;
5650;SDS011;40241;52.684;9.758;2023-03-04T16:43:23;4.50;;;1.27;;
5650;SDS011;40241;52.684;9.758;2023-03-04T16:45:48;6.07;;;1.40;;
5650;SDS011;40241;52.684;9.758;2023-03-04T16:48:14;8.63;;;2.33;;
5650;SDS011;40241;52.684;9.758;2023-03-04T16:50:40;4.83;;;1.30;;
5650;SDS011;40241;52.684;9.758;2023-03-04T16:53:13;8.77;;;2.00;;
5650;SDS011;40241;52.684;9.758;2023-03-04T16:55:47;4.47;;;1.63;;
5650;SDS011;40241;52.684;9.758;2023-03-04T16:58:12;9.13;;;1.20;;
5650;SDS011;40241;52.684;9.758;2023-03-04T17:00:38;5.90;;;1.20;;
5650;SDS011;40241;52.684;9.758;2023-03-04T17:03:03;5.33;;;1.80;;
5650;SDS011;40241;52.684;9.758;2023-03-04T17:05:30;8.50;;;1.80;;
5650;SDS011;40241;52.684;9.758;2023-03-04T17:07:57;9.60;;;2.60;;
5650;SDS011;40241;52.684;9.758;2023-03-04T17:10:23;3.93;;;2.53;;
5650;SDS011;40241;52.684;9.758;2023-03-04T17:12:48;6.73;;;2.90;;
5650;SDS011;40241;52.684;9.758;2023-03-04T17:15:15;6.03;;;1.43;;
5650;SDS011;40241;52.684;9.758;2023-03-04T17:17:41;7.40;;;2.30;;
5650;SDS011;40241;52.684;9.758;2023-03-04T17:20:09;8.40;;;2.13;;
5650;SDS011;40241;52.684;9.758;2023-03-04T17:22:37;6.33;;;1.70;;
5650;SDS011;40241;52.684;9.758;2023-03-04T17:25:02;9.90;;;2.50;;
5650;SDS011;40241;52.684;9.758;2023-03-04T17:27:28;9.77;;;1.67;;